createdAt,value
2018-11-13T00:01:57.692Z,7.00
2018-11-13T00:04:26.261Z,6.92
2018-11-13T00:06:54.872Z,7.27
2018-11-13T00:09:23.422Z,7.30
2018-11-13T00:11:52.009Z,6.55
2018-11-13T00:14:20.578Z,6.78
2018-11-13T00:16:49.165Z,7.30
2018-11-13T00:19:17.659Z,6.92
2018-11-13T00:21:46.229Z,6.58
2018-11-13T00:24:14.752Z,6.95
2018-11-13T00:26:43.298Z,7.45
2018-11-13T00:29:11.931Z,7.47
2018-11-13T00:31:40.501Z,7.55
2018-11-13T00:34:09.081Z,7.40
2018-11-13T00:36:37.654Z,7.72
2018-11-13T00:39:39.522Z,6.83
2018-11-13T00:42:08.061Z,7.20
2018-11-13T00:44:36.612Z,6.67
2018-11-13T00:47:05.335Z,6.92
2018-11-13T00:49:33.886Z,6.53
2018-11-13T00:52:02.423Z,6.97
2018-11-13T00:54:31.056Z,7.37
2018-11-13T00:56:59.638Z,7.25
2018-11-13T00:59:28.211Z,6.90
2018-11-13T01:01:56.798Z,7.12
2018-11-13T01:04:25.300Z,7.40
2018-11-13T01:06:53.814Z,7.33
2018-11-13T01:09:23.726Z,7.28
2018-11-13T01:11:52.325Z,7.10
2018-11-13T01:14:20.843Z,7.20
2018-11-13T01:16:49.376Z,7.12
2018-11-13T01:19:17.970Z,7.03
2018-11-13T01:21:46.444Z,7.25
2018-11-13T01:24:14.997Z,7.00
2018-11-13T01:26:43.542Z,7.37
2018-11-13T01:29:12.169Z,7.58
2018-11-13T01:31:40.749Z,7.35
2018-11-13T01:34:09.363Z,7.30
2018-11-13T01:36:37.937Z,7.17
2018-11-13T01:39:07.969Z,6.97
2018-11-13T01:41:36.729Z,7.62
2018-11-13T01:44:05.660Z,7.67
2018-11-13T01:46:34.342Z,7.45
2018-11-13T01:49:02.984Z,7.08
2018-11-13T01:51:31.515Z,7.62
2018-11-13T01:54:00.046Z,7.37
2018-11-13T01:56:28.638Z,7.47
2018-11-13T01:58:57.134Z,7.40
2018-11-13T02:01:25.709Z,7.53
2018-11-13T02:03:54.336Z,7.90
2018-11-13T02:06:22.986Z,7.00
2018-11-13T02:08:51.574Z,7.40
2018-11-13T02:11:20.224Z,7.35
2018-11-13T02:13:48.938Z,7.87
2018-11-13T02:16:17.600Z,7.90
2018-11-13T02:18:46.207Z,6.90
2018-11-13T02:21:14.766Z,7.80
2018-11-13T02:23:43.433Z,7.17
2018-11-13T02:26:12.106Z,7.37
2018-11-13T02:28:40.786Z,7.20
2018-11-13T02:31:09.432Z,7.47
2018-11-13T02:33:38.139Z,7.08
2018-11-13T02:36:06.800Z,7.40
2018-11-13T02:38:35.633Z,7.47
2018-11-13T02:41:04.338Z,7.47
2018-11-13T02:43:34.526Z,7.58
2018-11-13T02:46:03.163Z,7.60
2018-11-13T02:48:31.789Z,7.17
2018-11-13T02:51:00.427Z,7.50
2018-11-13T02:53:29.076Z,7.65
2018-11-13T02:55:57.706Z,7.37
2018-11-13T02:58:26.265Z,7.83
2018-11-13T03:00:54.975Z,7.45
2018-11-13T03:03:23.601Z,7.17
2018-11-13T03:05:52.267Z,7.53
2018-11-13T03:08:21.002Z,7.13
2018-11-13T03:10:49.565Z,7.03
2018-11-13T03:13:18.183Z,7.33
2018-11-13T03:15:46.772Z,7.42
2018-11-13T03:18:15.275Z,6.60
2018-11-13T03:20:43.976Z,7.60
2018-11-13T03:23:12.583Z,7.37
2018-11-13T03:25:41.134Z,7.30
2018-11-13T03:28:09.735Z,7.22
2018-11-13T03:30:38.405Z,6.87
2018-11-13T03:33:06.955Z,7.55
2018-11-13T03:35:35.754Z,7.20
2018-11-13T03:38:04.288Z,7.42
2018-11-13T03:40:32.946Z,7.23
2018-11-13T03:43:01.535Z,7.05
2018-11-13T03:45:30.155Z,6.85
2018-11-13T03:47:58.857Z,7.07
2018-11-13T03:50:27.457Z,7.05
2018-11-13T03:52:56.015Z,6.80
2018-11-13T03:55:24.625Z,7.87
2018-11-13T03:57:53.278Z,7.22
2018-11-13T04:00:23.067Z,7.42
2018-11-13T04:02:51.813Z,7.43
2018-11-13T04:05:21.245Z,7.20
2018-11-13T04:07:52.908Z,7.87
2018-11-13T04:10:22.167Z,7.17
2018-11-13T04:12:50.959Z,7.60
2018-11-13T04:15:22.312Z,7.43
2018-11-13T04:17:50.878Z,7.20
2018-11-13T04:20:20.807Z,7.05
2018-11-13T04:22:49.842Z,7.60
2018-11-13T04:25:18.449Z,7.25
2018-11-13T04:27:47.074Z,7.10
2018-11-13T04:30:17.026Z,7.78
2018-11-13T04:32:45.712Z,7.00
2018-11-13T04:35:15.505Z,7.40
2018-11-13T04:37:44.064Z,7.12
2018-11-13T04:40:16.819Z,7.37
2018-11-13T04:42:47.599Z,7.40
2018-11-13T04:45:17.658Z,7.40
2018-11-13T04:47:47.355Z,7.67
2018-11-13T04:50:18.114Z,7.35
2018-11-13T04:52:46.816Z,7.05
2018-11-13T04:55:15.943Z,6.97
2018-11-13T04:57:45.417Z,7.40
2018-11-13T05:00:17.047Z,7.08
2018-11-13T05:02:46.469Z,7.37
2018-11-13T05:05:15.974Z,7.40
2018-11-13T05:07:46.299Z,7.30
2018-11-13T05:10:15.056Z,7.65
2018-11-13T05:12:44.465Z,6.90
2018-11-13T05:15:13.056Z,7.42
2018-11-13T05:17:42.391Z,7.58
2018-11-13T05:20:12.879Z,7.50
2018-11-13T05:22:41.500Z,7.30
2018-11-13T05:25:13.054Z,7.08
2018-11-13T05:27:42.095Z,7.25
2018-11-13T05:30:13.247Z,7.25
2018-11-13T05:32:41.825Z,8.20
2018-11-13T05:35:12.763Z,7.05
2018-11-13T05:37:42.347Z,7.50
2018-11-13T05:40:13.559Z,7.80
2018-11-13T05:42:42.207Z,8.17
2018-11-13T05:45:12.792Z,7.67
2018-11-13T05:47:41.334Z,7.22
2018-11-13T05:50:11.591Z,7.95
2018-11-13T05:52:41.087Z,7.40
2018-11-13T05:55:10.405Z,7.60
2018-11-13T05:57:38.950Z,7.90
2018-11-13T06:00:13.187Z,7.70
2018-11-13T06:02:41.701Z,7.83
2018-11-13T06:05:10.667Z,7.53
2018-11-13T06:07:39.270Z,7.12
2018-11-13T06:10:08.995Z,7.30
2018-11-13T06:12:37.527Z,7.33
2018-11-13T06:15:06.995Z,7.50
2018-11-13T06:17:35.629Z,7.30
2018-11-13T06:20:04.558Z,7.62
2018-11-13T06:22:33.192Z,7.90
2018-11-13T06:25:01.711Z,7.10
2018-11-13T06:27:30.192Z,7.35
2018-11-13T06:29:58.761Z,7.80
2018-11-13T06:32:27.265Z,7.55
2018-11-13T06:34:55.802Z,8.03
2018-11-13T06:37:24.294Z,7.62
2018-11-13T06:39:52.786Z,7.73
2018-11-13T06:42:21.330Z,7.80
2018-11-13T06:44:49.898Z,7.80
2018-11-13T06:47:18.366Z,7.90
2018-11-13T06:49:46.891Z,8.40
2018-11-13T06:52:15.475Z,8.03
2018-11-13T06:55:14.441Z,8.18
2018-11-13T06:57:42.980Z,8.00
2018-11-13T07:00:11.555Z,7.83
2018-11-13T07:02:40.302Z,7.72
2018-11-13T07:05:12.000Z,8.03
2018-11-13T07:07:40.884Z,7.97
2018-11-13T07:10:11.108Z,7.83
2018-11-13T07:12:40.472Z,8.38
2018-11-13T07:15:10.307Z,8.38
2018-11-13T07:17:38.766Z,8.17
2018-11-13T07:20:07.942Z,8.43
2018-11-13T07:22:36.539Z,8.45
2018-11-13T07:25:05.330Z,8.15
2018-11-13T07:27:33.985Z,8.30
2018-11-13T07:30:03.677Z,8.10
2018-11-13T07:32:32.227Z,8.48
2018-11-13T07:35:00.764Z,8.77
2018-11-13T07:37:29.293Z,8.60
2018-11-13T07:39:57.757Z,8.70
2018-11-13T07:42:26.350Z,8.75
2018-11-13T07:44:54.864Z,8.60
2018-11-13T07:47:23.423Z,7.90
2018-11-13T07:49:51.880Z,8.85
2018-11-13T07:52:20.414Z,8.70
2018-11-13T07:54:49.152Z,8.30
2018-11-13T07:57:17.666Z,8.45
2018-11-13T07:59:46.193Z,8.60
2018-11-13T08:02:14.683Z,9.25
2018-11-13T08:04:43.221Z,9.38
2018-11-13T08:07:11.722Z,8.98
2018-11-13T08:09:40.331Z,8.35
2018-11-13T08:12:08.904Z,8.50
2018-11-13T08:14:37.425Z,8.98
2018-11-13T08:17:06.090Z,8.83
2018-11-13T08:19:34.650Z,8.75
2018-11-13T08:22:03.930Z,8.73
2018-11-13T08:24:32.473Z,8.68
2018-11-13T08:27:00.994Z,8.93
2018-11-13T08:29:29.703Z,8.70
2018-11-13T08:31:58.229Z,9.30
2018-11-13T08:34:26.778Z,9.23
2018-11-13T08:36:55.343Z,8.75
2018-11-13T08:39:23.854Z,9.28
2018-11-13T08:41:52.410Z,9.10
2018-11-13T08:44:21.069Z,8.70
2018-11-13T08:46:49.641Z,9.05
2018-11-13T08:49:18.198Z,8.80
2018-11-13T08:51:46.687Z,8.55
2018-11-13T08:54:15.227Z,8.85
2018-11-13T08:57:16.386Z,8.90
2018-11-13T08:59:45.146Z,8.93
2018-11-13T09:02:13.569Z,8.93
2018-11-13T09:04:44.000Z,9.07
2018-11-13T09:07:12.583Z,8.70
2018-11-13T09:09:41.111Z,8.87
2018-11-13T09:12:09.772Z,8.85
2018-11-13T09:14:38.309Z,8.70
2018-11-13T09:17:06.974Z,8.55
2018-11-13T09:19:36.413Z,8.88
2018-11-13T09:22:05.568Z,8.65
2018-11-13T09:24:34.199Z,9.28
2018-11-13T09:27:02.773Z,9.30
2018-11-13T09:29:31.270Z,8.70
2018-11-13T09:31:59.902Z,8.50
2018-11-13T09:34:28.469Z,8.40
2018-11-13T09:36:57.118Z,9.10
2018-11-13T09:39:25.755Z,8.75
2018-11-13T09:41:54.255Z,9.03
2018-11-13T09:44:22.811Z,8.73
2018-11-13T09:46:51.922Z,8.43
2018-11-13T09:49:20.551Z,9.40
2018-11-13T09:51:49.046Z,9.00
2018-11-13T09:54:17.665Z,8.28
2018-11-13T09:56:46.184Z,8.63
2018-11-13T09:59:14.718Z,8.78
2018-11-13T10:01:43.836Z,8.85
2018-11-13T10:04:12.452Z,9.15
2018-11-13T10:06:40.685Z,8.93
2018-11-13T10:09:11.337Z,8.48
2018-11-13T10:11:40.729Z,8.90
2018-11-13T10:14:09.871Z,8.43
2018-11-13T10:16:39.328Z,8.00
2018-11-13T10:19:08.844Z,7.80
2018-11-13T10:21:37.427Z,7.33
2018-11-13T10:24:06.829Z,7.37
2018-11-13T10:26:35.555Z,7.05
2018-11-13T10:29:04.099Z,6.67
2018-11-13T10:31:32.659Z,6.30
2018-11-13T10:34:01.955Z,6.57
2018-11-13T10:36:30.501Z,6.47
2018-11-13T10:39:00.627Z,6.45
2018-11-13T10:41:29.326Z,5.55
2018-11-13T10:43:57.930Z,6.00
2018-11-13T10:46:26.435Z,6.00
2018-11-13T10:48:55.079Z,5.50
2018-11-13T10:51:23.937Z,6.13
2018-11-13T10:53:52.442Z,6.30
2018-11-13T10:56:21.208Z,5.70
2018-11-13T10:58:50.072Z,5.87
2018-11-13T11:01:23.958Z,5.30
2018-11-13T11:03:57.831Z,5.78
2018-11-13T11:06:26.347Z,5.65
2018-11-13T11:08:54.832Z,5.95
2018-11-13T11:11:23.619Z,5.33
2018-11-13T11:16:32.533Z,4.90
2018-11-13T11:19:01.048Z,5.05
2018-11-13T11:21:29.596Z,5.00
2018-11-13T11:23:58.130Z,4.92
2018-11-13T11:26:26.684Z,5.15
2018-11-13T11:28:55.273Z,5.12
2018-11-13T11:31:23.813Z,5.10
2018-11-13T11:33:52.286Z,4.50
2018-11-13T11:36:20.958Z,4.67
2018-11-13T11:38:49.543Z,4.60
2018-11-13T11:41:18.347Z,4.87
2018-11-13T11:43:46.857Z,4.37
2018-11-13T11:46:15.557Z,4.90
2018-11-13T11:48:44.254Z,4.80
2018-11-13T11:51:12.785Z,5.28
2018-11-13T11:53:41.380Z,5.58
2018-11-13T11:56:09.865Z,5.28
2018-11-13T11:58:38.503Z,5.40
2018-11-13T12:01:07.057Z,5.62
2018-11-13T12:03:35.798Z,6.45
2018-11-13T12:06:04.471Z,6.37
2018-11-13T12:08:32.994Z,7.00
2018-11-13T12:11:02.386Z,6.55
2018-11-13T12:13:31.583Z,6.97
2018-11-13T12:16:00.128Z,7.10
2018-11-13T12:18:28.643Z,7.35
2018-11-13T12:20:57.178Z,6.70
2018-11-13T12:23:25.736Z,7.22
2018-11-13T12:25:54.542Z,7.10
2018-11-13T12:28:23.165Z,7.37
2018-11-13T12:30:51.702Z,7.33
2018-11-13T12:33:20.367Z,6.90
2018-11-13T12:35:48.962Z,7.10
2018-11-13T12:38:17.516Z,7.90
2018-11-13T12:40:46.117Z,7.90
2018-11-13T12:43:14.565Z,7.47
2018-11-13T12:45:43.151Z,7.70
2018-11-13T12:48:11.695Z,8.20
2018-11-13T12:50:45.689Z,7.40
2018-11-13T12:53:14.393Z,7.55
2018-11-13T12:55:43.054Z,7.90
2018-11-13T12:58:11.576Z,7.25
2018-11-13T13:00:40.117Z,7.40
2018-11-13T13:03:08.648Z,7.00
2018-11-13T13:05:37.163Z,6.27
2018-11-13T13:08:05.857Z,6.37
2018-11-13T13:10:34.379Z,6.63
2018-11-13T13:13:02.902Z,6.45
2018-11-13T13:15:31.466Z,6.67
2018-11-13T13:18:00.006Z,6.20
2018-11-13T13:20:28.541Z,6.92
2018-11-13T13:22:57.080Z,5.95
2018-11-13T13:25:25.611Z,6.12
2018-11-13T13:27:54.109Z,6.45
2018-11-13T13:30:24.106Z,5.65
2018-11-13T13:32:52.678Z,5.53
2018-11-13T13:35:39.092Z,5.60
2018-11-13T13:38:08.646Z,5.03
2018-11-13T13:40:38.084Z,5.30
2018-11-13T13:43:07.319Z,5.47
2018-11-13T13:45:35.913Z,5.25
2018-11-13T13:48:05.303Z,5.10
2018-11-13T13:50:33.779Z,5.10
2018-11-13T13:53:02.316Z,5.20
2018-11-13T13:55:30.804Z,5.08
2018-11-13T13:57:59.385Z,4.80
2018-11-13T14:00:27.955Z,4.67
2018-11-13T14:02:56.505Z,4.73
2018-11-13T14:05:25.006Z,4.60
2018-11-13T14:07:53.610Z,4.72
2018-11-13T14:10:22.158Z,4.33
2018-11-13T14:12:50.676Z,4.70
2018-11-13T14:15:19.402Z,4.53
2018-11-13T14:17:47.958Z,4.22
2018-11-13T14:20:19.436Z,4.00
2018-11-13T14:22:47.978Z,4.87
2018-11-13T14:25:16.546Z,4.20
2018-11-13T14:27:45.491Z,4.35
2018-11-13T14:30:20.302Z,4.20
2018-11-13T14:32:49.389Z,4.22
2018-11-13T14:35:18.001Z,4.30
2018-11-13T14:37:46.781Z,4.28
2018-11-13T14:40:22.165Z,4.30
2018-11-13T14:42:51.273Z,4.40
2018-11-13T14:45:21.590Z,4.53
2018-11-13T14:47:51.319Z,4.70
2018-11-13T14:50:21.384Z,4.40
2018-11-13T14:52:50.722Z,4.30
2018-11-13T14:55:23.656Z,4.50
2018-11-13T14:57:52.650Z,4.70
2018-11-13T15:00:25.641Z,4.33
2018-11-13T15:02:54.923Z,4.45
2018-11-13T15:05:24.281Z,4.60
2018-11-13T15:07:55.434Z,4.47
2018-11-13T15:10:50.302Z,4.22
2018-11-13T15:13:19.701Z,4.10
2018-11-13T15:15:48.376Z,4.25
2018-11-13T15:18:18.969Z,4.05
2018-11-13T15:20:48.502Z,4.10
2018-11-13T15:23:17.148Z,3.85
2018-11-13T15:25:47.236Z,4.00
2018-11-13T15:28:15.855Z,3.70
2018-11-13T15:30:46.042Z,3.85
2018-11-13T15:33:17.739Z,4.00
2018-11-13T15:35:46.307Z,4.00
2018-11-13T15:38:14.877Z,4.12
2018-11-13T15:40:43.378Z,3.95
2018-11-13T15:43:13.041Z,3.92
2018-11-13T15:45:41.606Z,3.70
2018-11-13T15:48:11.787Z,3.92
2018-11-13T15:50:40.814Z,3.85
2018-11-13T15:53:09.754Z,4.17
2018-11-13T15:55:38.359Z,4.03
2018-11-13T15:58:07.209Z,4.33
2018-11-13T16:00:37.066Z,4.17
2018-11-13T16:03:13.222Z,4.35
2018-11-13T16:05:43.941Z,4.42
2018-11-13T16:08:12.848Z,4.42
2018-11-13T16:10:41.454Z,4.85
2018-11-13T16:13:10.078Z,4.60
2018-11-13T16:15:39.006Z,4.72
2018-11-13T16:18:09.035Z,4.33
2018-11-13T16:20:37.546Z,4.33
2018-11-13T16:23:06.851Z,4.05
2018-11-13T16:25:35.510Z,3.55
2018-11-13T16:28:05.468Z,3.40
2018-11-13T16:30:35.581Z,3.20
2018-11-13T16:33:04.064Z,3.08
2018-11-13T16:35:32.983Z,3.00
2018-11-13T16:38:02.787Z,2.80
2018-11-13T16:40:32.166Z,2.80
2018-11-13T16:43:00.737Z,3.25
2018-11-13T16:45:30.280Z,2.75
2018-11-13T16:47:59.500Z,2.87
2018-11-13T16:50:33.467Z,3.35
2018-11-13T16:53:01.988Z,3.02
2018-11-13T16:55:35.856Z,2.70
2018-11-13T16:58:05.613Z,2.62
2018-11-13T17:00:34.252Z,2.80
2018-11-13T17:03:02.826Z,2.67
2018-11-13T17:05:31.752Z,2.70
2018-11-13T17:08:00.302Z,2.50
2018-11-13T17:10:30.299Z,2.52
2018-11-13T17:12:59.485Z,2.50
2018-11-13T17:15:29.143Z,2.20
2018-11-13T17:17:58.818Z,2.33
2018-11-13T17:20:27.418Z,2.20
2018-11-13T17:22:55.887Z,2.20
2018-11-13T17:25:26.083Z,2.20
2018-11-13T17:27:55.261Z,2.00
2018-11-13T17:30:26.824Z,1.80
2018-11-13T17:32:56.246Z,1.95
2018-11-13T17:35:25.750Z,2.05
2018-11-13T17:37:55.045Z,1.92
2018-11-13T17:40:24.762Z,1.90
2018-11-13T17:42:54.486Z,1.90
2018-11-13T17:45:30.282Z,1.85
2018-11-13T17:47:58.932Z,1.80
2018-11-13T17:50:29.925Z,1.80
2018-11-13T17:52:58.564Z,2.00
2018-11-13T17:55:27.384Z,2.20
2018-11-13T17:57:57.280Z,2.20
2018-11-13T18:00:31.962Z,2.00
2018-11-13T18:03:01.045Z,1.90
2018-11-13T18:05:30.202Z,2.27
2018-11-13T18:07:59.984Z,1.62
2018-11-13T18:10:29.272Z,1.90
2018-11-13T18:12:58.157Z,2.20
2018-11-13T18:15:28.489Z,2.00
2018-11-13T18:18:01.412Z,1.97
2018-11-13T18:20:32.915Z,1.80
2018-11-13T18:23:04.778Z,1.70
2018-11-13T18:25:36.127Z,1.70
2018-11-13T18:28:07.369Z,1.82
2018-11-13T18:30:42.892Z,1.70
2018-11-13T18:33:16.246Z,1.62
2018-11-13T18:35:51.361Z,1.80
2018-11-13T18:38:22.487Z,2.12
2018-11-13T18:40:54.941Z,2.00
2018-11-13T18:43:24.692Z,2.20
2018-11-13T18:45:54.542Z,2.03
2018-11-13T18:48:23.416Z,1.70
2018-11-13T18:50:54.886Z,1.90
2018-11-13T18:53:24.918Z,2.10
2018-11-13T18:55:54.030Z,2.30
2018-11-13T18:58:25.449Z,2.10
2018-11-13T19:00:56.420Z,2.00
2018-11-13T19:03:24.990Z,2.12
2018-11-13T19:05:53.903Z,2.00
2018-11-13T19:08:24.283Z,1.95
2018-11-13T19:10:55.437Z,2.10
2018-11-13T19:13:25.616Z,1.90
2018-11-13T19:16:01.733Z,1.90
2018-11-13T19:18:32.014Z,1.60
2018-11-13T19:21:01.893Z,1.70
2018-11-13T19:23:30.473Z,1.65
2018-11-13T19:25:59.017Z,1.62
2018-11-13T19:28:27.538Z,1.70
2018-11-13T19:30:56.232Z,1.80
2018-11-13T19:33:24.715Z,2.00
2018-11-13T19:35:53.349Z,1.90
2018-11-13T19:38:21.934Z,1.72
2018-11-13T19:40:50.511Z,1.92
2018-11-13T19:43:19.080Z,2.13
2018-11-13T19:45:47.653Z,2.10
2018-11-13T19:48:16.267Z,2.52
2018-11-13T19:50:44.780Z,2.60
2018-11-13T19:53:13.364Z,2.58
2018-11-13T19:55:41.868Z,2.57
2018-11-13T19:58:10.429Z,2.70
2018-11-13T20:00:39.815Z,2.98
2018-11-13T20:03:09.557Z,2.95
2018-11-13T20:05:38.130Z,2.80
2018-11-13T20:08:07.836Z,2.67
2018-11-13T20:10:37.260Z,2.98
2018-11-13T20:13:06.675Z,3.10
2018-11-13T20:15:35.790Z,2.87
2018-11-13T20:18:04.391Z,3.08
2018-11-13T20:20:33.904Z,2.90
2018-11-13T20:23:03.746Z,3.08
2018-11-13T20:25:33.174Z,3.25
2018-11-13T20:28:01.961Z,2.90
2018-11-13T20:30:31.810Z,3.02
2018-11-13T20:33:07.261Z,3.20
2018-11-13T20:35:35.884Z,3.12
2018-11-13T20:38:05.085Z,3.15
2018-11-13T20:40:34.909Z,3.58
2018-11-13T20:43:04.989Z,3.50
2018-11-13T20:45:33.532Z,3.50
2018-11-13T20:48:02.128Z,3.33
2018-11-13T20:50:31.982Z,3.30
2018-11-13T20:53:00.544Z,3.20
2018-11-13T20:55:29.401Z,3.60
2018-11-13T20:57:58.308Z,3.20
2018-11-13T21:00:29.083Z,3.27
2018-11-13T21:02:58.111Z,3.00
2018-11-13T21:05:26.636Z,3.50
2018-11-13T21:07:55.508Z,3.65
2018-11-13T21:10:28.249Z,3.12
2018-11-13T21:12:57.764Z,3.45
2018-11-13T21:15:26.294Z,3.50
2018-11-13T21:17:54.796Z,3.70
2018-11-13T21:20:23.372Z,3.45
2018-11-13T21:22:51.932Z,3.52
2018-11-13T21:25:21.984Z,3.50
2018-11-13T21:28:24.582Z,3.52
2018-11-13T21:30:53.197Z,3.20
2018-11-13T21:33:21.820Z,3.50
2018-11-13T21:35:50.460Z,3.40
2018-11-13T21:38:19.040Z,3.35
2018-11-13T21:40:47.590Z,3.12
2018-11-13T21:43:16.208Z,3.10
2018-11-13T21:45:44.715Z,3.50
2018-11-13T21:48:13.399Z,3.47
2018-11-13T21:50:41.914Z,3.53
2018-11-13T21:53:10.552Z,3.45
2018-11-13T21:55:39.093Z,3.65
2018-11-13T21:58:07.551Z,3.80
2018-11-13T22:00:36.793Z,3.37
2018-11-13T22:03:07.599Z,3.55
2018-11-13T22:05:37.117Z,3.58
2018-11-13T22:08:05.555Z,3.50
2018-11-13T22:10:34.136Z,3.47
2018-11-13T22:13:02.708Z,3.72
2018-11-13T22:15:31.986Z,4.00
2018-11-13T22:18:01.192Z,3.70
2018-11-13T22:20:29.583Z,3.73
2018-11-13T22:22:59.091Z,4.05
2018-11-13T22:25:28.000Z,4.10
2018-11-13T22:27:57.596Z,4.20
2018-11-13T22:30:28.656Z,3.70
2018-11-13T22:32:57.130Z,4.22
2018-11-13T22:35:25.787Z,4.20
2018-11-13T22:37:55.292Z,4.42
2018-11-13T22:40:25.649Z,4.20
2018-11-13T22:42:54.545Z,4.40
2018-11-13T22:45:24.447Z,4.37
2018-11-13T22:47:53.972Z,4.28
2018-11-13T22:50:23.944Z,4.40
2018-11-13T22:52:53.227Z,4.78
2018-11-13T22:55:22.007Z,4.12
2018-11-13T22:57:52.285Z,4.40
2018-11-13T23:00:24.506Z,4.30
2018-11-13T23:02:54.200Z,4.50
2018-11-13T23:05:22.852Z,4.40
2018-11-13T23:07:51.816Z,4.77
2018-11-13T23:10:20.399Z,4.70
2018-11-13T23:12:48.961Z,4.72
2018-11-13T23:15:18.957Z,4.55
2018-11-13T23:17:47.496Z,5.17
2018-11-13T23:20:17.644Z,4.90
2018-11-13T23:22:46.507Z,4.93
2018-11-13T23:25:16.388Z,4.85
2018-11-13T23:27:45.903Z,4.78
2018-11-13T23:30:17.667Z,4.60
2018-11-13T23:32:46.534Z,5.05
2018-11-13T23:35:15.422Z,4.80
2018-11-13T23:37:45.153Z,5.53
2018-11-13T23:40:17.524Z,4.78
2018-11-13T23:42:46.638Z,5.00
2018-11-13T23:45:16.348Z,5.00
2018-11-13T23:47:46.491Z,4.97
2018-11-13T23:50:15.113Z,5.53
2018-11-13T23:52:44.190Z,5.47
2018-11-13T23:55:13.897Z,5.80
2018-11-13T23:57:43.111Z,5.47
